Time;durP1;ratioP1;P1;durP2;ratioP2;P2;SDS_P1;SDS_P2;PMS_P1;PMS_P2;Temp;Humidity;BMP_temperature;BMP_pressure;BME280_temperature;BME280_humidity;BME280_pressure;Samples;Min_cycle;Max_cycle;Signal;HPM_P1;HPM_P2
2021/12/12 00:01:45;;;;;;;53.50;49.57;;;5.60;99.90;;;;;;4379592;32;20165;-67
2021/12/12 00:04:16;;;;;;;47.23;43.37;;;5.50;99.90;;;;;;4379546;32;20152;-65
2021/12/12 00:06:46;;;;;;;45.93;41.47;;;5.50;99.90;;;;;;4377946;32;20152;-64
2021/12/12 00:09:17;;;;;;;42.10;38.23;;;5.50;99.90;;;;;;4376130;32;20242;-66
2021/12/12 00:11:46;;;;;;;44.67;40.83;;;5.50;99.90;;;;;;4377796;32;20153;-68
2021/12/12 00:14:17;;;;;;;48.63;44.70;;;5.50;99.90;;;;;;4377321;32;20168;-68
2021/12/12 00:16:45;;;;;;;48.70;43.83;;;5.50;99.90;;;;;;4377751;32;20160;-65
2021/12/12 00:19:13;;;;;;;45.90;41.33;;;5.50;99.90;;;;;;4377573;32;20152;-65
2021/12/12 00:21:44;;;;;;;47.33;42.33;;;5.50;99.90;;;;;;4364644;32;20612;-69
2021/12/12 00:24:14;;;;;;;41.53;37.43;;;5.50;99.90;;;;;;4371537;32;20228;-66
2021/12/12 00:26:42;;;;;;;37.17;33.77;;;5.50;99.90;;;;;;4362654;33;20171;-68
2021/12/12 00:29:12;;;;;;;39.77;35.47;;;5.60;99.90;;;;;;4362567;33;20172;-66
2021/12/12 00:31:39;;;;;;;38.20;34.77;;;5.60;99.90;;;;;;4376218;32;20157;-66
2021/12/12 00:34:07;;;;;;;39.53;35.60;;;5.60;99.90;;;;;;4378351;32;20219;-64
2021/12/12 00:36:35;;;;;;;39.83;35.50;;;5.60;99.90;;;;;;4363033;32;20164;-65
2021/12/12 00:39:09;;;;;;;39.47;35.33;;;5.60;99.90;;;;;;4367558;32;20155;-67
2021/12/12 00:41:41;;;;;;;41.13;37.30;;;5.60;99.90;;;;;;4377371;32;20633;-63
2021/12/12 00:44:12;;;;;;;48.80;40.00;;;5.60;99.90;;;;;;4379106;32;20599;-66
2021/12/12 00:46:39;;;;;;;42.17;37.10;;;5.60;99.90;;;;;;4377555;32;20465;-66
2021/12/12 00:49:07;;;;;;;40.67;35.03;;;5.60;99.90;;;;;;4376750;32;20160;-67
2021/12/12 00:51:38;;;;;;;42.73;38.33;;;5.60;99.90;;;;;;4377175;32;20149;-66
2021/12/12 00:54:06;;;;;;;41.63;37.20;;;5.60;99.90;;;;;;4377252;32;20160;-65
2021/12/12 00:56:33;;;;;;;43.30;38.87;;;5.60;99.90;;;;;;4378899;32;20582;-65
2021/12/12 00:59:01;;;;;;;35.53;31.67;;;5.60;99.90;;;;;;4378852;32;20212;-65
2021/12/12 01:01:33;;;;;;;39.57;35.37;;;5.70;99.90;;;;;;4376522;32;20216;-68
2021/12/12 01:04:05;;;;;;;35.23;31.57;;;5.70;99.90;;;;;;4376827;32;20593;-65
2021/12/12 01:06:33;;;;;;;37.00;33.50;;;5.70;99.90;;;;;;4377122;32;20160;-65
2021/12/12 01:09:06;;;;;;;38.63;34.77;;;5.70;99.90;;;;;;4376761;32;20175;-64
2021/12/12 01:11:38;;;;;;;37.27;33.60;;;5.70;99.90;;;;;;4378235;32;20240;-64
2021/12/12 01:14:08;;;;;;;34.20;30.53;;;5.70;99.90;;;;;;4377881;32;20672;-64
2021/12/12 01:16:38;;;;;;;40.37;36.23;;;5.70;99.90;;;;;;4376984;32;20530;-64
2021/12/12 01:19:11;;;;;;;34.00;31.07;;;5.70;99.90;;;;;;4375554;32;20207;-64
2021/12/12 01:21:43;;;;;;;36.63;33.40;;;5.70;99.90;;;;;;4377909;32;20171;-64
2021/12/12 01:24:14;;;;;;;41.17;37.57;;;5.70;99.90;;;;;;4377602;32;20195;-64
2021/12/12 01:26:46;;;;;;;50.07;36.20;;;5.70;99.90;;;;;;4376889;32;20157;-64
2021/12/12 01:29:13;;;;;;;40.70;36.90;;;5.70;99.90;;;;;;4373066;32;20170;-68
2021/12/12 01:31:47;;;;;;;38.77;34.97;;;5.70;99.90;;;;;;4367053;32;20172;-67
2021/12/12 01:34:18;;;;;;;39.00;34.97;;;5.70;99.90;;;;;;4372049;32;20161;-65
2021/12/12 01:36:52;;;;;;;36.70;33.07;;;5.70;99.90;;;;;;4376609;32;20199;-65
2021/12/12 01:39:23;;;;;;;37.10;33.60;;;5.80;99.90;;;;;;4376703;32;20209;-66
2021/12/12 01:41:56;;;;;;;36.90;33.53;;;5.70;99.90;;;;;;4376251;32;20203;-65
2021/12/12 01:44:26;;;;;;;36.43;33.00;;;5.70;99.90;;;;;;4376413;32;20167;-67
2021/12/12 01:47:03;;;;;;;39.67;34.30;;;5.70;99.90;;;;;;4370358;32;20152;-64
2021/12/12 01:49:31;;;;;;;38.57;34.80;;;5.70;99.90;;;;;;4361560;32;20220;-68
2021/12/12 01:51:58;;;;;;;39.30;35.47;;;5.70;99.90;;;;;;4361359;33;20220;-66
2021/12/12 01:54:31;;;;;;;37.83;33.97;;;5.80;99.90;;;;;;4363053;32;20201;-66
2021/12/12 01:57:01;;;;;;;40.47;36.47;;;5.80;99.90;;;;;;4373231;32;20164;-67
2021/12/12 01:59:31;;;;;;;38.53;35.33;;;5.80;99.90;;;;;;4377977;32;20591;-64
2021/12/12 02:02:04;;;;;;;36.77;33.63;;;5.80;99.90;;;;;;4376150;32;20196;-69
2021/12/12 02:04:35;;;;;;;37.27;33.93;;;5.80;99.90;;;;;;4376210;32;20176;-67
2021/12/12 02:07:06;;;;;;;38.27;35.07;;;5.80;99.90;;;;;;4376165;32;20200;-69
2021/12/12 02:09:34;;;;;;;41.03;37.30;;;5.80;99.90;;;;;;4376583;32;20200;-65
2021/12/12 02:12:01;;;;;;;37.83;34.63;;;5.80;99.90;;;;;;4375756;32;20175;-65
2021/12/12 02:14:32;;;;;;;41.47;38.37;;;5.80;99.90;;;;;;4375342;32;20152;-68
2021/12/12 02:17:04;;;;;;;38.07;34.30;;;5.80;99.90;;;;;;4377731;32;20171;-66
2021/12/12 02:19:39;;;;;;;39.97;36.70;;;5.80;99.90;;;;;;4376069;32;20156;-65
2021/12/12 02:22:29;;;;;;;40.20;35.17;;;5.90;99.90;;;;;;4375337;32;20298;-65
2021/12/12 02:36:00;;;;;;;40.37;37.07;;;5.90;99.90;;;;;;4361167;32;20179;-68
2021/12/12 02:38:32;;;;;;;41.90;38.33;;;5.90;99.90;;;;;;4366896;32;20186;-68
2021/12/12 02:41:01;;;;;;;42.67;39.13;;;5.90;99.90;;;;;;4371208;32;20160;-65
2021/12/12 02:43:33;;;;;;;44.83;41.00;;;5.90;99.90;;;;;;4366223;32;20157;-67
2021/12/12 02:46:03;;;;;;;44.40;40.97;;;5.90;99.90;;;;;;4364178;32;20172;-68
2021/12/12 02:48:33;;;;;;;45.97;42.57;;;5.90;99.90;;;;;;4375706;32;20160;-65
2021/12/12 02:51:04;;;;;;;44.43;40.70;;;5.90;99.90;;;;;;4364935;32;20538;-66
2021/12/12 02:53:36;;;;;;;44.80;40.70;;;6.00;99.90;;;;;;4360571;33;20176;-67
2021/12/12 02:56:07;;;;;;;46.23;41.80;;;6.00;99.90;;;;;;4360639;33;20168;-64
2021/12/12 02:58:34;;;;;;;48.90;44.70;;;6.00;99.90;;;;;;4362306;32;20201;-67
2021/12/12 03:01:14;;;;;;;52.00;47.50;;;6.00;99.90;;;;;;4360607;33;20200;-64
2021/12/12 03:03:42;;;;;;;45.60;41.73;;;6.00;99.90;;;;;;4369250;32;20156;-68
2021/12/12 03:06:13;;;;;;;46.30;42.70;;;6.00;99.90;;;;;;4375330;32;20156;-68
2021/12/12 03:08:43;;;;;;;45.20;41.33;;;6.00;99.90;;;;;;4375562;32;20196;-69
2021/12/12 03:11:11;;;;;;;47.27;43.10;;;6.00;99.90;;;;;;4375532;32;20211;-70
2021/12/12 03:13:39;;;;;;;49.83;45.50;;;6.00;99.90;;;;;;4377053;32;20199;-67
2021/12/12 03:16:08;;;;;;;47.90;44.07;;;6.10;99.90;;;;;;4375203;32;20192;-69
2021/12/12 03:18:39;;;;;;;48.30;44.23;;;6.10;99.90;;;;;;4366211;32;20161;-67
2021/12/12 03:21:15;;;;;;;53.17;48.90;;;6.10;99.90;;;;;;4370722;32;20702;-67
2021/12/12 03:23:46;;;;;;;50.03;46.23;;;6.10;99.90;;;;;;4376364;32;20160;-66
2021/12/12 03:26:14;;;;;;;51.47;47.00;;;6.10;99.90;;;;;;4376751;32;20237;-66
2021/12/12 03:28:44;;;;;;;55.73;50.93;;;6.10;99.90;;;;;;4378762;32;20190;-64
2021/12/12 03:31:14;;;;;;;59.83;54.03;;;6.10;99.90;;;;;;4379323;32;20613;-66
2021/12/12 03:33:41;;;;;;;57.50;53.17;;;6.10;99.90;;;;;;4367200;32;20209;-66
2021/12/12 03:36:10;;;;;;;56.27;51.57;;;6.10;99.90;;;;;;4365124;32;20179;-67
2021/12/12 03:38:40;;;;;;;56.50;51.73;;;6.10;99.90;;;;;;4373050;32;20179;-68
2021/12/12 03:41:12;;;;;;;61.10;56.47;;;6.20;99.90;;;;;;4378279;32;20152;-66
2021/12/12 03:43:39;;;;;;;55.23;50.87;;;6.20;99.90;;;;;;4379916;32;20243;-68
2021/12/12 03:46:10;;;;;;;65.00;59.80;;;6.20;99.90;;;;;;4372272;32;20192;-68
2021/12/12 03:48:40;;;;;;;61.07;56.87;;;6.20;99.90;;;;;;4363332;33;20473;-65
2021/12/12 03:51:08;;;;;;;60.00;54.93;;;6.30;99.90;;;;;;4364908;32;20215;-69
2021/12/12 03:53:39;;;;;;;54.10;49.60;;;6.30;99.90;;;;;;4367784;32;20207;-66
2021/12/12 03:56:07;;;;;;;62.20;57.13;;;6.20;99.90;;;;;;4378008;32;20208;-69
2021/12/12 03:58:36;;;;;;;63.40;58.57;;;6.20;99.90;;;;;;4378064;32;20176;-69
2021/12/12 04:01:10;;;;;;;62.30;57.80;;;6.30;99.90;;;;;;4379438;32;20167;-66
2021/12/12 04:03:39;;;;;;;62.07;57.13;;;6.30;99.90;;;;;;4377856;32;20565;-70
2021/12/12 04:06:10;;;;;;;60.47;55.37;;;6.30;99.90;;;;;;4378024;32;20176;-64
2021/12/12 04:08:43;;;;;;;64.27;58.80;;;6.30;99.90;;;;;;4377862;32;20196;-68
2021/12/12 04:11:17;;;;;;;64.57;59.50;;;6.30;99.90;;;;;;4379350;32;20585;-65
2021/12/12 04:13:49;;;;;;;61.87;57.27;;;6.30;99.90;;;;;;4374412;32;20160;-69
2021/12/12 04:16:17;;;;;;;63.03;58.43;;;6.30;99.90;;;;;;4362811;33;20494;-68
2021/12/12 04:18:47;;;;;;;64.70;59.30;;;6.40;99.90;;;;;;4362825;33;20179;-68
2021/12/12 04:21:17;;;;;;;65.83;59.67;;;6.40;99.90;;;;;;4364357;32;20243;-69
2021/12/12 04:23:44;;;;;;;68.30;62.53;;;6.40;99.90;;;;;;4362494;33;20174;-66
2021/12/12 04:26:14;;;;;;;65.07;59.80;;;6.40;99.90;;;;;;4369827;32;20177;-66
2021/12/12 04:28:41;;;;;;;63.53;58.23;;;6.40;99.90;;;;;;4378848;32;20183;-66
2021/12/12 04:31:10;;;;;;;65.73;60.43;;;6.40;99.90;;;;;;4377676;32;20235;-65
2021/12/12 04:33:37;;;;;;;64.47;59.10;;;6.40;99.90;;;;;;4368235;32;20645;-64
2021/12/12 04:36:06;;;;;;;68.90;63.47;;;6.50;99.90;;;;;;4363939;32;20168;-68
2021/12/12 04:38:33;;;;;;;65.97;60.53;;;6.50;99.90;;;;;;4377178;32;20163;-66
2021/12/12 04:41:00;;;;;;;68.73;63.20;;;6.50;99.90;;;;;;4379032;32;20469;-65
2021/12/12 04:43:26;;;;;;;70.63;64.93;;;6.50;99.90;;;;;;4363783;32;20239;-70
2021/12/12 04:46:08;;;;;;;72.23;66.83;;;6.50;99.90;;;;;;4371353;32;20247;-68
2021/12/12 04:51:47;;;;;;;73.63;67.87;;;6.60;99.90;;;;;;4378957;32;20613;-67
2021/12/12 04:54:22;;;;;;;66.50;61.37;;;6.60;99.90;;;;;;4378545;32;20190;-65
2021/12/12 04:56:55;;;;;;;70.97;65.53;;;6.60;99.90;;;;;;4377235;32;20199;-64
2021/12/12 04:59:26;;;;;;;70.63;64.50;;;6.60;99.90;;;;;;4377749;32;20156;-68
2021/12/12 05:02:00;;;;;;;71.20;65.93;;;6.60;99.90;;;;;;4365120;32;20220;-67
2021/12/12 05:04:34;;;;;;;71.70;66.23;;;6.60;99.90;;;;;;4378814;32;20167;-65
2021/12/12 05:07:06;;;;;;;71.37;65.83;;;6.60;99.90;;;;;;4377186;32;20162;-68
2021/12/12 05:09:40;;;;;;;69.57;64.20;;;6.70;99.90;;;;;;4378190;32;20234;-65
2021/12/12 05:12:14;;;;;;;70.20;64.67;;;6.70;99.90;;;;;;4378758;32;20153;-66
2021/12/12 05:15:00;;;;;;;73.80;67.97;;;6.70;99.90;;;;;;4377456;32;20212;-65
2021/12/12 05:17:33;;;;;;;72.10;66.27;;;6.70;99.90;;;;;;4376331;32;20191;-64
2021/12/12 05:20:04;;;;;;;81.67;75.13;;;6.70;99.90;;;;;;4373302;32;20168;-66
2021/12/12 05:22:34;;;;;;;73.60;68.17;;;6.70;99.90;;;;;;4376921;32;20168;-68
2021/12/12 05:25:05;;;;;;;77.30;70.47;;;6.70;99.90;;;;;;4375821;32;20188;-64
2021/12/12 05:27:34;;;;;;;72.23;65.90;;;6.70;99.90;;;;;;4376732;32;20195;-67
2021/12/12 05:30:06;;;;;;;80.97;74.40;;;6.80;99.90;;;;;;4378453;32;20153;-68
2021/12/12 05:32:36;;;;;;;78.83;72.70;;;6.70;99.90;;;;;;4373227;32;20184;-68
2021/12/12 05:35:08;;;;;;;79.63;72.60;;;6.80;99.90;;;;;;4376564;32;20160;-64
2021/12/12 05:37:36;;;;;;;83.17;76.60;;;6.80;99.90;;;;;;4375687;32;20149;-66
2021/12/12 05:40:07;;;;;;;81.70;74.87;;;6.90;99.90;;;;;;4378283;32;20546;-66
2021/12/12 05:42:34;;;;;;;80.80;74.03;;;6.80;99.90;;;;;;4378142;32;20164;-67
2021/12/12 05:45:04;;;;;;;90.03;82.93;;;6.90;99.90;;;;;;4378196;32;20235;-66
2021/12/12 05:47:31;;;;;;;79.30;73.17;;;6.90;99.90;;;;;;4376340;32;20204;-65
2021/12/12 05:50:01;;;;;;;85.13;77.87;;;6.90;99.90;;;;;;4369379;32;20220;-65
2021/12/12 05:52:29;;;;;;;91.17;83.03;;;6.90;99.90;;;;;;4377886;32;20170;-66
2021/12/12 05:54:58;;;;;;;87.93;80.73;;;6.90;99.90;;;;;;4372130;32;20636;-65
2021/12/12 05:57:27;;;;;;;84.73;77.70;;;7.00;99.90;;;;;;4377779;32;20600;-65
2021/12/12 05:59:56;;;;;;;89.20;81.90;;;6.90;99.90;;;;;;4376090;32;20507;-66
2021/12/12 06:02:25;;;;;;;84.60;77.00;;;7.00;99.90;;;;;;4377067;32;20633;-68
2021/12/12 06:04:54;;;;;;;80.27;72.57;;;7.20;99.90;;;;;;4377803;32;20176;-65
2021/12/12 06:07:22;;;;;;;83.67;75.97;;;7.10;99.90;;;;;;4376588;32;20172;-65
2021/12/12 06:09:52;;;;;;;88.37;80.33;;;7.10;99.90;;;;;;4375914;32;20226;-67
2021/12/12 06:12:20;;;;;;;88.23;80.90;;;7.10;99.90;;;;;;4377851;32;20183;-66
2021/12/12 06:14:50;;;;;;;87.33;79.67;;;7.10;99.90;;;;;;4369369;32;20157;-65
2021/12/12 06:17:19;;;;;;;85.43;78.03;;;7.20;99.90;;;;;;4377888;32;20594;-66
2021/12/12 06:19:48;;;;;;;88.43;80.83;;;7.20;99.90;;;;;;4377711;32;20212;-68
2021/12/12 06:22:15;;;;;;;83.07;75.97;;;7.20;99.90;;;;;;4375849;32;20199;-65
2021/12/12 06:24:43;;;;;;;92.77;83.50;;;7.20;99.90;;;;;;4376892;32;20204;-67
2021/12/12 06:27:14;;;;;;;91.37;82.73;;;7.20;99.90;;;;;;4377490;32;20191;-66
2021/12/12 06:29:49;;;;;;;97.27;88.30;;;7.20;99.90;;;;;;4375779;32;20168;-66
2021/12/12 06:32:20;;;;;;;90.20;81.37;;;7.30;99.90;;;;;;4375866;32;20148;-67
2021/12/12 06:34:50;;;;;;;93.67;84.77;;;7.30;99.90;;;;;;4376482;32;20190;-67
2021/12/12 06:37:18;;;;;;;92.20;83.40;;;7.30;99.90;;;;;;4364188;32;20176;-66
2021/12/12 06:39:45;;;;;;;87.73;79.43;;;7.30;99.90;;;;;;4361753;32;20469;-68
2021/12/12 06:42:14;;;;;;;88.07;79.40;;;7.30;99.90;;;;;;4362575;32;20148;-67
2021/12/12 06:44:43;;;;;;;90.30;81.50;;;7.30;99.90;;;;;;4368565;32;20182;-67
2021/12/12 06:47:13;;;;;;;98.93;88.13;;;7.30;99.90;;;;;;4377471;32;20231;-67
2021/12/12 06:49:40;;;;;;;99.60;89.73;;;7.30;99.90;;;;;;4376773;32;20223;-67
2021/12/12 06:52:11;;;;;;;96.83;86.50;;;7.40;99.90;;;;;;4373805;32;20294;-67
2021/12/12 06:54:39;;;;;;;94.83;85.57;;;7.50;99.90;;;;;;4363038;32;20636;-66
2021/12/12 06:57:10;;;;;;;99.30;88.90;;;7.40;99.90;;;;;;4362401;32;20167;-67
2021/12/12 06:59:40;;;;;;;103.73;91.10;;;7.40;99.90;;;;;;4360499;32;20216;-66
2021/12/12 07:02:10;;;;;;;98.80;88.77;;;7.50;99.90;;;;;;4372672;32;20211;-67
2021/12/12 07:04:39;;;;;;;100.50;91.00;;;7.50;99.90;;;;;;4372947;32;20177;-68
2021/12/12 07:07:09;;;;;;;99.07;86.20;;;7.60;99.90;;;;;;4360552;32;20183;-68
2021/12/12 07:09:37;;;;;;;97.23;86.83;;;7.60;99.90;;;;;;4366513;32;20198;-66
2021/12/12 07:12:07;;;;;;;108.03;96.80;;;7.60;99.90;;;;;;4374179;32;20190;-68
2021/12/12 07:14:36;;;;;;;103.47;90.43;;;7.60;99.90;;;;;;4365396;32;20183;-69
2021/12/12 07:17:06;;;;;;;104.17;92.47;;;7.60;99.90;;;;;;4360221;32;20177;-68
2021/12/12 07:19:33;;;;;;;110.43;96.77;;;7.60;99.90;;;;;;4367281;32;20187;-66
2021/12/12 07:22:01;;;;;;;109.17;97.30;;;7.60;99.90;;;;;;4372035;32;20179;-68
2021/12/12 07:24:30;;;;;;;115.00;94.80;;;7.60;99.90;;;;;;4374762;32;20544;-66
2021/12/12 07:26:58;;;;;;;108.30;93.97;;;7.70;99.90;;;;;;4369622;32;20284;-66
2021/12/12 07:29:25;;;;;;;122.00;105.13;;;7.70;99.90;;;;;;4375849;32;20612;-65
2021/12/12 07:31:53;;;;;;;123.43;100.10;;;7.70;99.90;;;;;;4362991;32;20586;-68
2021/12/12 07:34:22;;;;;;;120.27;100.57;;;7.70;99.90;;;;;;4372432;32;20259;-65
2021/12/12 07:36:53;;;;;;;120.63;101.53;;;7.70;99.90;;;;;;4375090;32;20173;-67
2021/12/12 07:39:22;;;;;;;118.53;98.57;;;7.80;99.90;;;;;;4377029;32;20579;-67
2021/12/12 07:41:51;;;;;;;119.43;105.30;;;7.90;99.90;;;;;;4375005;32;20523;-67
2021/12/12 07:44:22;;;;;;;116.60;92.30;;;7.90;99.90;;;;;;4376170;32;20636;-66
2021/12/12 07:46:51;;;;;;;105.77;94.27;;;7.90;99.90;;;;;;4375173;32;20182;-64
2021/12/12 07:49:23;;;;;;;115.57;95.80;;;8.00;99.90;;;;;;4375164;32;20168;-67
2021/12/12 07:51:50;;;;;;;121.00;101.43;;;8.00;99.90;;;;;;4376525;32;20262;-68
2021/12/12 07:54:18;;;;;;;126.13;96.47;;;8.00;99.90;;;;;;4374605;32;20220;-68
2021/12/12 07:56:46;;;;;;;125.07;101.23;;;8.00;99.90;;;;;;4375015;32;20205;-64
2021/12/12 07:59:17;;;;;;;117.90;100.37;;;8.00;99.90;;;;;;4376870;32;20545;-65
2021/12/12 08:01:46;;;;;;;115.13;100.23;;;8.00;99.90;;;;;;4375094;32;20236;-65
2021/12/12 08:04:15;;;;;;;129.23;103.23;;;8.10;99.90;;;;;;4374937;32;20201;-67
2021/12/12 08:06:44;;;;;;;120.60;100.67;;;8.10;99.90;;;;;;4376750;32;20208;-66
2021/12/12 08:09:12;;;;;;;136.07;105.43;;;8.10;99.90;;;;;;4374123;32;20208;-66
2021/12/12 08:11:40;;;;;;;130.13;101.30;;;8.10;99.90;;;;;;4362579;32;20174;-67
2021/12/12 08:14:12;;;;;;;126.00;105.70;;;8.20;99.90;;;;;;4364442;32;20154;-66
2021/12/12 08:16:39;;;;;;;130.77;106.60;;;8.20;99.90;;;;;;4362749;33;20594;-66
2021/12/12 08:19:06;;;;;;;133.27;95.27;;;8.20;99.90;;;;;;4365267;32;20226;-68
2021/12/12 08:21:34;;;;;;;121.40;102.17;;;8.20;99.90;;;;;;4370207;32;20204;-65
2021/12/12 08:24:07;;;;;;;137.03;108.33;;;8.30;99.90;;;;;;4376260;32;20220;-62
2021/12/12 08:26:35;;;;;;;117.73;104.20;;;8.30;99.90;;;;;;4378940;32;20525;-67
2021/12/12 08:29:05;;;;;;;119.70;102.60;;;8.30;99.90;;;;;;4374899;32;20168;-65
2021/12/12 08:31:32;;;;;;;115.50;102.33;;;8.30;99.90;;;;;;4379206;32;20149;-66
2021/12/12 08:33:59;;;;;;;123.97;104.00;;;8.30;99.90;;;;;;4374160;32;20244;-65
2021/12/12 08:36:26;;;;;;;136.07;105.03;;;8.40;99.90;;;;;;4378740;32;20641;-65
2021/12/12 08:38:53;;;;;;;115.03;101.50;;;8.40;99.90;;;;;;4378934;32;20189;-64
2021/12/12 08:41:22;;;;;;;123.43;109.37;;;8.40;99.90;;;;;;4378535;32;20600;-65
2021/12/12 08:43:49;;;;;;;115.00;99.93;;;8.40;99.90;;;;;;4376700;32;20203;-65
2021/12/12 08:46:27;;;;;;;124.43;110.47;;;8.50;99.90;;;;;;4377390;32;20178;-67
2021/12/12 08:48:55;;;;;;;120.23;105.03;;;8.50;99.90;;;;;;4377915;32;20154;-65
2021/12/12 08:51:32;;;;;;;120.77;107.63;;;8.50;99.90;;;;;;4371778;32;20221;-68
2021/12/12 08:54:07;;;;;;;122.30;100.77;;;8.60;99.90;;;;;;4362400;32;20161;-67
2021/12/12 08:56:43;;;;;;;127.60;100.93;;;8.50;99.90;;;;;;4362191;33;20176;-66
2021/12/12 08:59:12;;;;;;;132.97;108.33;;;8.60;99.90;;;;;;4362115;33;20209;-68
2021/12/12 09:01:40;;;;;;;134.53;108.23;;;8.60;99.90;;;;;;4375762;32;20200;-67
2021/12/12 09:04:10;;;;;;;110.50;99.23;;;8.60;99.90;;;;;;4364683;32;20180;-66
2021/12/12 09:06:41;;;;;;;108.30;97.07;;;8.60;99.90;;;;;;4362696;32;20148;-67
2021/12/12 09:09:11;;;;;;;126.67;112.87;;;8.70;99.90;;;;;;4362990;32;20169;-67
2021/12/12 09:11:46;;;;;;;111.27;98.47;;;8.70;99.90;;;;;;4362124;33;20151;-67
2021/12/12 09:14:17;;;;;;;111.80;98.30;;;8.70;99.90;;;;;;4363771;32;20158;-67
2021/12/12 09:16:48;;;;;;;126.03;104.40;;;8.80;99.90;;;;;;4365388;32;20239;-68
2021/12/12 09:19:24;;;;;;;130.10;111.57;;;8.80;99.90;;;;;;4378639;32;20171;-66
2021/12/12 09:21:56;;;;;;;122.93;107.87;;;8.70;99.90;;;;;;4376885;32;20198;-66
2021/12/12 09:24:42;;;;;;;119.60;104.43;;;8.70;99.90;;;;;;4376621;32;20230;-67
2021/12/12 09:27:14;;;;;;;131.23;110.20;;;8.80;99.90;;;;;;4373099;32;20165;-65
2021/12/12 09:29:44;;;;;;;134.53;105.43;;;8.80;99.90;;;;;;4371547;32;20181;-67
2021/12/12 09:32:14;;;;;;;121.77;109.37;;;8.80;99.90;;;;;;4361359;32;20201;-69
2021/12/12 09:34:46;;;;;;;123.87;111.47;;;8.90;99.90;;;;;;4362653;32;20257;-67
2021/12/12 09:37:18;;;;;;;119.73;102.80;;;8.90;99.90;;;;;;4367144;32;20255;-64
2021/12/12 09:39:50;;;;;;;119.37;107.40;;;8.90;99.90;;;;;;4369573;32;20180;-67
2021/12/12 09:42:54;;;;;;;120.00;107.53;;;9.00;99.90;;;;;;4361426;32;20163;-67
2021/12/12 09:45:42;;;;;;;113.57;101.27;;;9.00;99.90;;;;;;4366698;32;20241;-66
2021/12/12 09:51:43;;;;;;;106.57;95.37;;;9.10;99.90;;;;;;4377580;32;20213;-68
2021/12/12 09:54:27;;;;;;;111.40;100.27;;;9.10;99.90;;;;;;4374079;32;20209;-66
2021/12/12 09:57:01;;;;;;;111.60;101.13;;;9.20;99.90;;;;;;4375508;32;20174;-67
2021/12/12 09:59:41;;;;;;;109.63;99.73;;;9.20;99.90;;;;;;4373075;32;20186;-64
2021/12/12 10:02:17;;;;;;;111.00;100.77;;;9.30;99.90;;;;;;4361622;32;20237;-70
2021/12/12 10:04:53;;;;;;;108.17;99.00;;;9.20;99.90;;;;;;4370872;32;20526;-68
2021/12/12 10:07:34;;;;;;;104.40;95.67;;;9.20;99.90;;;;;;4364517;32;20182;-69
2021/12/12 10:10:06;;;;;;;108.80;99.50;;;9.20;99.90;;;;;;4364886;32;20172;-66
2021/12/12 10:12:39;;;;;;;105.67;96.67;;;9.30;99.90;;;;;;4377815;32;20520;-69
2021/12/12 10:15:14;;;;;;;116.57;107.30;;;9.20;99.90;;;;;;4375696;32;20173;-66
2021/12/12 10:17:45;;;;;;;104.13;95.23;;;9.30;99.90;;;;;;4375216;32;20292;-67
2021/12/12 10:20:19;;;;;;;115.97;106.53;;;9.20;99.90;;;;;;4376941;32;20161;-69
2021/12/12 10:23:01;;;;;;;105.23;96.87;;;9.20;99.90;;;;;;4327667;32;1673641;-69
2021/12/12 10:25:34;;;;;;;111.80;103.17;;;9.30;99.90;;;;;;4391456;32;20152;-69
2021/12/12 10:28:15;;;;;;;106.73;98.10;;;9.30;99.90;;;;;;4386511;32;20185;-66
2021/12/12 10:30:49;;;;;;;110.80;101.63;;;9.30;99.90;;;;;;4388655;32;20178;-66
2021/12/12 10:33:19;;;;;;;111.43;103.33;;;9.40;99.90;;;;;;4380037;32;20144;-69
2021/12/12 10:35:52;;;;;;;128.87;119.93;;;9.40;99.90;;;;;;4378859;32;20232;-67
2021/12/12 10:38:22;;;;;;;118.27;109.70;;;9.30;99.90;;;;;;4383480;32;20228;-67
2021/12/12 10:40:52;;;;;;;114.77;106.70;;;9.30;99.90;;;;;;4387599;32;20217;-68
2021/12/12 10:43:25;;;;;;;122.23;114.03;;;9.30;99.90;;;;;;4385445;32;20164;-69
2021/12/12 10:46:00;;;;;;;122.30;113.80;;;9.20;99.90;;;;;;4381803;32;20162;-69
2021/12/12 10:48:34;;;;;;;121.60;113.70;;;9.30;99.90;;;;;;4385077;32;20168;-69
2021/12/12 10:51:05;;;;;;;118.37;109.83;;;9.40;99.90;;;;;;4382918;32;20719;-68
2021/12/12 10:53:37;;;;;;;112.20;104.27;;;9.40;99.90;;;;;;4381573;32;20545;-67
2021/12/12 10:56:09;;;;;;;124.67;116.43;;;9.30;99.90;;;;;;4377420;32;20145;-66
2021/12/12 10:58:42;;;;;;;118.43;110.73;;;9.40;99.90;;;;;;4379166;32;20160;-67
2021/12/12 11:01:13;;;;;;;118.47;109.77;;;9.40;99.90;;;;;;4382954;32;20170;-67
2021/12/12 11:03:45;;;;;;;133.53;124.47;;;9.60;99.90;;;;;;4382761;32;20236;-67
2021/12/12 11:06:16;;;;;;;121.53;113.37;;;9.40;99.90;;;;;;4383814;32;20266;-69
2021/12/12 11:08:48;;;;;;;117.27;109.53;;;9.60;99.90;;;;;;4381762;32;20202;-66
2021/12/12 11:11:17;;;;;;;120.67;112.77;;;9.50;99.90;;;;;;4379408;32;20220;-67
2021/12/12 11:13:50;;;;;;;115.07;107.77;;;9.60;99.90;;;;;;4381393;32;20172;-68
2021/12/12 11:16:26;;;;;;;128.27;119.90;;;9.60;99.90;;;;;;4382315;32;20621;-69
2021/12/12 11:18:58;;;;;;;149.20;140.63;;;9.60;99.90;;;;;;4378289;32;20204;-69
2021/12/12 11:21:29;;;;;;;123.60;115.47;;;9.60;99.90;;;;;;4389328;32;20222;-67
2021/12/12 11:24:01;;;;;;;128.53;120.33;;;9.70;99.90;;;;;;4390175;32;20168;-69
2021/12/12 11:26:39;;;;;;;117.17;109.83;;;9.70;99.90;;;;;;4390415;32;20140;-69
2021/12/12 11:29:11;;;;;;;122.53;114.70;;;9.70;99.90;;;;;;4383932;32;20167;-67
2021/12/12 11:31:45;;;;;;;119.10;111.67;;;9.70;99.90;;;;;;4391727;32;20206;-69
2021/12/12 11:34:13;;;;;;;118.70;110.63;;;9.70;99.90;;;;;;4389525;32;20239;-67
2021/12/12 11:36:51;;;;;;;121.73;113.50;;;9.70;99.90;;;;;;4391557;32;20156;-66
2021/12/12 11:39:24;;;;;;;119.50;111.77;;;9.80;99.90;;;;;;4390885;32;20152;-66
2021/12/12 11:41:58;;;;;;;117.50;109.77;;;9.70;99.90;;;;;;4391809;32;20152;-67
2021/12/12 11:44:30;;;;;;;116.87;109.57;;;9.80;99.90;;;;;;4390262;32;20557;-68
2021/12/12 11:47:08;;;;;;;114.77;107.30;;;9.80;99.90;;;;;;4393061;32;20153;-67
2021/12/12 11:49:48;;;;;;;119.03;111.33;;;9.80;99.90;;;;;;4394546;32;20235;-67
2021/12/12 11:52:23;;;;;;;126.27;118.40;;;9.90;99.90;;;;;;4394551;32;20145;-66
2021/12/12 11:54:59;;;;;;;115.97;108.47;;;9.90;99.90;;;;;;4393057;32;20220;-67
2021/12/12 11:57:31;;;;;;;122.17;114.37;;;9.80;99.90;;;;;;4392834;32;20229;-67
2021/12/12 12:00:06;;;;;;;129.97;121.77;;;9.90;99.90;;;;;;4393503;32;20215;-68
2021/12/12 12:02:41;;;;;;;113.87;106.90;;;10.00;99.90;;;;;;4393109;32;20147;-67
2021/12/12 12:05:24;;;;;;;139.13;130.93;;;10.00;99.90;;;;;;4392093;32;20306;-67
2021/12/12 12:08:01;;;;;;;117.40;109.33;;;10.00;99.90;;;;;;4389058;32;20623;-67
2021/12/12 12:10:42;;;;;;;124.77;117.00;;;10.00;99.90;;;;;;4394575;32;20140;-67
2021/12/12 12:13:27;;;;;;;134.87;126.87;;;10.00;99.90;;;;;;4392317;32;20237;-69
2021/12/12 12:15:59;;;;;;;113.97;106.80;;;10.10;99.90;;;;;;4392685;32;20221;-67
2021/12/12 12:18:41;;;;;;;117.83;110.50;;;10.00;99.90;;;;;;4392877;32;20249;-67
2021/12/12 12:21:16;;;;;;;117.13;109.43;;;10.00;99.90;;;;;;4394341;32;20172;-68
2021/12/12 12:24:13;;;;;;;124.67;116.87;;;10.00;99.90;;;;;;4392458;32;20201;-68
2021/12/12 12:26:56;;;;;;;122.60;114.77;;;10.00;99.90;;;;;;4389838;32;20140;-66
2021/12/12 12:30:07;;;;;;;125.70;117.93;;;10.10;99.90;;;;;;4396985;32;20153;-68
2021/12/12 12:33:18;;;;;;;122.97;115.87;;;10.20;99.90;;;;;;4359228;32;20191;-68
2021/12/12 12:36:23;;;;;;;107.30;100.70;;;10.10;99.90;;;;;;4315568;33;20173;-70
2021/12/12 12:39:28;;;;;;;110.97;104.47;;;10.20;99.90;;;;;;4303121;33;20186;-67
2021/12/12 12:42:32;;;;;;;133.23;126.00;;;10.30;99.90;;;;;;4319147;33;20153;-66
2021/12/12 12:45:35;;;;;;;136.23;128.67;;;10.30;99.90;;;;;;4330699;33;20236;-68
2021/12/12 12:48:45;;;;;;;129.87;122.63;;;10.20;99.90;;;;;;4330276;33;20572;-67
2021/12/12 12:54:28;;;;;;;110.67;104.00;;;10.20;99.90;;;;;;4272499;33;20174;-67
2021/12/12 12:57:07;;;;;;;112.27;105.63;;;10.30;99.90;;;;;;4272166;33;20648;-67
2021/12/12 12:59:51;;;;;;;122.97;115.80;;;10.30;99.90;;;;;;4270901;33;20238;-68
2021/12/12 13:02:20;;;;;;;120.23;113.17;;;10.40;99.90;;;;;;4272891;33;20210;-68
2021/12/12 13:05:12;;;;;;;118.10;110.93;;;10.40;99.90;;;;;;4272431;33;20203;-68
2021/12/12 13:08:29;;;;;;;141.70;133.97;;;10.50;99.90;;;;;;4268809;33;20189;-68
2021/12/12 13:11:00;;;;;;;134.30;126.73;;;10.50;99.90;;;;;;4315629;33;20236;-69
2021/12/12 13:13:31;;;;;;;133.90;125.87;;;10.50;99.90;;;;;;4342198;33;20164;-69
2021/12/12 13:16:04;;;;;;;156.57;148.30;;;10.50;99.90;;;;;;4343088;33;20220;-69